sensor_id;sensor_type;location;lat;lon;timestamp;pressure;altitude;pressure_sealevel;temperature
70819;BMP280;58439;51.046;13.692;2022-12-10T03:23:20;99136.13;;;1.83
70819;BMP280;58439;51.046;13.692;2022-12-10T03:25:50;99131.94;;;1.82
70819;BMP280;58439;51.046;13.692;2022-12-10T03:28:45;99124.69;;;1.86
70819;BMP280;58439;51.046;13.692;2022-12-10T03:31:39;99127.91;;;1.88
70819;BMP280;58439;51.046;13.692;2022-12-10T03:34:44;99132.88;;;1.89
70819;BMP280;58439;51.046;13.692;2022-12-10T03:37:40;99140.63;;;1.89
70819;BMP280;58439;51.046;13.692;2022-12-10T03:44:51;99145.63;;;1.83
70819;BMP280;58439;51.046;13.692;2022-12-10T03:47:35;99132.88;;;1.81
70819;BMP280;58439;51.046;13.692;2022-12-10T03:50:28;99136.41;;;1.80
70819;BMP280;58439;51.046;13.692;2022-12-10T03:53:20;99141.88;;;1.77
70819;BMP280;58439;51.046;13.692;2022-12-10T03:56:10;99127.38;;;1.76
70819;BMP280;58439;51.046;13.692;2022-12-10T03:59:03;99121.94;;;1.79
70819;BMP280;58439;51.046;13.692;2022-12-10T04:01:44;99128.41;;;1.83
70819;BMP280;58439;51.046;13.692;2022-12-10T04:04:56;99133.25;;;1.86
70819;BMP280;58439;51.046;13.692;2022-12-10T04:07:55;99126.47;;;1.85
70819;BMP280;58439;51.046;13.692;2022-12-10T04:11:29;99124.22;;;1.82
70819;BMP280;58439;51.046;13.692;2022-12-10T04:14:21;99127.59;;;1.83
70819;BMP280;58439;51.046;13.692;2022-12-10T04:17:20;99132.75;;;1.83
70819;BMP280;58439;51.046;13.692;2022-12-10T04:20:30;99136.13;;;1.83
70819;BMP280;58439;51.046;13.692;2022-12-10T04:32:09;99136.75;;;1.85
70819;BMP280;58439;51.046;13.692;2022-12-10T05:01:05;99126.63;;;1.84
70819;BMP280;58439;51.046;13.692;2022-12-10T05:04:38;99111.31;;;1.82
70819;BMP280;58439;51.046;13.692;2022-12-10T05:07:39;99122.06;;;1.78
70819;BMP280;58439;51.046;13.692;2022-12-10T05:11:19;99131.94;;;1.82
70819;BMP280;58439;51.046;13.692;2022-12-10T05:14:49;99128.22;;;1.85
70819;BMP280;58439;51.046;13.692;2022-12-10T05:17:29;99128.09;;;1.86
70819;BMP280;58439;51.046;13.692;2022-12-10T05:20:23;99117.13;;;1.84
70819;BMP280;58439;51.046;13.692;2022-12-10T05:48:16;99131.22;;;1.72
70819;BMP280;58439;51.046;13.692;2022-12-10T05:51:19;99133.13;;;1.70
70819;BMP280;58439;51.046;13.692;2022-12-10T05:53:52;99130.06;;;1.66
70819;BMP280;58439;51.046;13.692;2022-12-10T05:56:49;99134.91;;;1.69
70819;BMP280;58439;51.046;13.692;2022-12-10T05:59:45;99135.41;;;1.73
70819;BMP280;58439;51.046;13.692;2022-12-10T06:03:06;99136.38;;;1.72
70819;BMP280;58439;51.046;13.692;2022-12-10T06:07:23;99137.00;;;1.74
70819;BMP280;58439;51.046;13.692;2022-12-10T06:11:38;99140.44;;;1.74
70819;BMP280;58439;51.046;13.692;2022-12-10T06:15:51;99142.50;;;1.71
70819;BMP280;58439;51.046;13.692;2022-12-10T06:18:34;99153.59;;;1.71
70819;BMP280;58439;51.046;13.692;2022-12-10T06:21:19;99143.31;;;1.71
70819;BMP280;58439;51.046;13.692;2022-12-10T06:24:49;99141.69;;;1.70
70819;BMP280;58439;51.046;13.692;2022-12-10T06:28:16;99147.50;;;1.72
70819;BMP280;58439;51.046;13.692;2022-12-10T06:30:54;99161.47;;;1.70
70819;BMP280;58439;51.046;13.692;2022-12-10T06:33:38;99169.19;;;1.70
70819;BMP280;58439;51.046;13.692;2022-12-10T06:36:51;99163.41;;;1.68
70819;BMP280;58439;51.046;13.692;2022-12-10T06:40:25;99162.78;;;1.74
70819;BMP280;58439;51.046;13.692;2022-12-10T06:43:37;99164.09;;;1.78
70819;BMP280;58439;51.046;13.692;2022-12-10T06:46:44;99169.72;;;1.73
70819;BMP280;58439;51.046;13.692;2022-12-10T06:49:23;99173.41;;;1.71
70819;BMP280;58439;51.046;13.692;2022-12-10T06:52:06;99170.03;;;1.70
70819;BMP280;58439;51.046;13.692;2022-12-10T06:54:46;99165.53;;;1.72
70819;BMP280;58439;51.046;13.692;2022-12-10T06:57:28;99176.00;;;1.71
70819;BMP280;58439;51.046;13.692;2022-12-10T07:00:17;99178.41;;;1.72
70819;BMP280;58439;51.046;13.692;2022-12-10T07:04:02;99182.75;;;1.72
70819;BMP280;58439;51.046;13.692;2022-12-10T07:07:53;99180.69;;;1.76
70819;BMP280;58439;51.046;13.692;2022-12-10T07:43:54;99196.06;;;1.85
70819;BMP280;58439;51.046;13.692;2022-12-10T07:47:27;99199.31;;;1.87
70819;BMP280;58439;51.046;13.692;2022-12-10T08:00:03;99199.31;;;1.95
70819;BMP280;58439;51.046;13.692;2022-12-10T08:09:19;99211.25;;;1.96
70819;BMP280;58439;51.046;13.692;2022-12-10T08:13:29;99205.94;;;1.98
70819;BMP280;58439;51.046;13.692;2022-12-10T17:37:56;99385.06;;;0.76
70819;BMP280;58439;51.046;13.692;2022-12-10T21:07:17;99444.16;;;0.29
70819;BMP280;58439;51.046;13.692;2022-12-10T21:19:36;99442.81;;;0.24
70819;BMP280;58439;51.046;13.692;2022-12-10T21:22:04;99448.75;;;0.25
70819;BMP280;58439;51.046;13.692;2022-12-10T21:37:23;99442.38;;;0.10
70819;BMP280;58439;51.046;13.692;2022-12-10T21:40:30;99431.41;;;0.08
70819;BMP280;58439;51.046;13.692;2022-12-10T21:44:02;99442.91;;;0.04
70819;BMP280;58439;51.046;13.692;2022-12-10T21:47:39;99436.41;;;-0.01
70819;BMP280;58439;51.046;13.692;2022-12-10T21:50:07;99434.25;;;0.05
70819;BMP280;58439;51.046;13.692;2022-12-10T21:52:47;99433.06;;;0.09
70819;BMP280;58439;51.046;13.692;2022-12-10T21:55:47;99436.84;;;0.14
70819;BMP280;58439;51.046;13.692;2022-12-10T21:58:45;99434.13;;;0.16
70819;BMP280;58439;51.046;13.692;2022-12-10T22:02:56;99429.81;;;0.16
70819;BMP280;58439;51.046;13.692;2022-12-10T22:05:39;99431.53;;;0.16
70819;BMP280;58439;51.046;13.692;2022-12-10T22:09:25;99435.75;;;0.17
70819;BMP280;58439;51.046;13.692;2022-12-10T22:12:14;99437.25;;;0.10
70819;BMP280;58439;51.046;13.692;2022-12-10T22:19:08;99440.88;;;0.07
70819;BMP280;58439;51.046;13.692;2022-12-10T22:21:53;99435.47;;;0.01
70819;BMP280;58439;51.046;13.692;2022-12-10T22:24:22;99440.63;;;0.01
70819;BMP280;58439;51.046;13.692;2022-12-10T22:26:50;99436.84;;;0.05
70819;BMP280;58439;51.046;13.692;2022-12-10T22:29:18;99443.44;;;-0.03
70819;BMP280;58439;51.046;13.692;2022-12-10T22:31:47;99438.84;;;-0.09
70819;BMP280;58439;51.046;13.692;2022-12-10T22:35:01;99438.16;;;-0.11
70819;BMP280;58439;51.046;13.692;2022-12-10T22:37:30;99435.44;;;-0.09
70819;BMP280;58439;51.046;13.692;2022-12-10T22:39:58;99439.22;;;-0.13
70819;BMP280;58439;51.046;13.692;2022-12-10T22:42:37;99440.31;;;-0.06
70819;BMP280;58439;51.046;13.692;2022-12-10T22:45:07;99444.13;;;-0.10
70819;BMP280;58439;51.046;13.692;2022-12-10T22:47:37;99441.28;;;-0.07
70819;BMP280;58439;51.046;13.692;2022-12-10T22:50:06;99442.50;;;-0.11
70819;BMP280;58439;51.046;13.692;2022-12-10T22:53:00;99437.22;;;-0.10
70819;BMP280;58439;51.046;13.692;2022-12-10T22:55:29;99432.22;;;-0.11
70819;BMP280;58439;51.046;13.692;2022-12-10T22:57:58;99440.84;;;-0.12
70819;BMP280;58439;51.046;13.692;2022-12-10T23:01:29;99443.00;;;-0.17
70819;BMP280;58439;51.046;13.692;2022-12-10T23:03:57;99447.91;;;-0.14
70819;BMP280;58439;51.046;13.692;2022-12-10T23:06:28;99449.91;;;-0.18
70819;BMP280;58439;51.046;13.692;2022-12-10T23:09:13;99435.44;;;-0.19
70819;BMP280;58439;51.046;13.692;2022-12-10T23:11:48;99443.16;;;-0.19
70819;BMP280;58439;51.046;13.692;2022-12-10T23:14:47;99446.53;;;-0.09
70819;BMP280;58439;51.046;13.692;2022-12-10T23:17:37;99448.69;;;-0.14
70819;BMP280;58439;51.046;13.692;2022-12-10T23:20:05;99437.88;;;-0.17
70819;BMP280;58439;51.046;13.692;2022-12-10T23:22:34;99441.25;;;-0.17
70819;BMP280;58439;51.046;13.692;2022-12-10T23:25:03;99435.03;;;-0.14
70819;BMP280;58439;51.046;13.692;2022-12-10T23:27:31;99437.47;;;-0.13
70819;BMP280;58439;51.046;13.692;2022-12-10T23:46:40;99432.44;;;-0.24
70819;BMP280;58439;51.046;13.692;2022-12-10T23:49:07;99424.06;;;-0.26
70819;BMP280;58439;51.046;13.692;2022-12-10T23:51:35;99428.66;;;-0.20
70819;BMP280;58439;51.046;13.692;2022-12-10T23:54:03;99428.13;;;-0.23
70819;BMP280;58439;51.046;13.692;2022-12-10T23:56:43;99419.75;;;-0.26
70819;BMP280;58439;51.046;13.692;2022-12-10T23:59:21;99413.25;;;-0.30
